sensor_id;sensor_type;location;lat;lon;timestamp;temperature;humidity
31735;DHT22;18313;48.518;9.124;2023-02-01T00:01:35;3.80;99.90
31735;DHT22;18313;48.518;9.124;2023-02-01T00:04:02;3.90;99.90
31735;DHT22;18313;48.518;9.124;2023-02-01T00:06:30;3.80;99.90
31735;DHT22;18313;48.518;9.124;2023-02-01T00:08:57;3.80;99.90
31735;DHT22;18313;48.518;9.124;2023-02-01T00:11:24;3.90;99.90
31735;DHT22;18313;48.518;9.124;2023-02-01T00:13:52;3.80;99.90
31735;DHT22;18313;48.518;9.124;2023-02-01T00:16:22;4.00;99.90
31735;DHT22;18313;48.518;9.124;2023-02-01T00:18:51;4.00;99.90
31735;DHT22;18313;48.518;9.124;2023-02-01T00:21:20;3.90;99.90
31735;DHT22;18313;48.518;9.124;2023-02-01T00:23:47;3.90;99.90
31735;DHT22;18313;48.518;9.124;2023-02-01T00:26:17;3.90;99.90
31735;DHT22;18313;48.518;9.124;2023-02-01T00:28:44;4.00;99.90
31735;DHT22;18313;48.518;9.124;2023-02-01T00:31:12;3.90;99.90
31735;DHT22;18313;48.518;9.124;2023-02-01T00:33:39;4.00;99.90
31735;DHT22;18313;48.518;9.124;2023-02-01T00:36:08;4.00;99.90
31735;DHT22;18313;48.518;9.124;2023-02-01T00:38:37;4.00;99.90
31735;DHT22;18313;48.518;9.124;2023-02-01T00:41:11;3.90;99.90
31735;DHT22;18313;48.518;9.124;2023-02-01T00:43:39;4.00;99.90
31735;DHT22;18313;48.518;9.124;2023-02-01T00:46:07;4.00;99.90
31735;DHT22;18313;48.518;9.124;2023-02-01T00:48:34;4.10;99.90
31735;DHT22;18313;48.518;9.124;2023-02-01T00:51:07;4.00;99.90
31735;DHT22;18313;48.518;9.124;2023-02-01T00:53:35;3.90;99.90
31735;DHT22;18313;48.518;9.124;2023-02-01T00:56:03;4.00;99.90
31735;DHT22;18313;48.518;9.124;2023-02-01T00:58:30;4.00;99.90
31735;DHT22;18313;48.518;9.124;2023-02-01T01:01:05;4.00;99.90
31735;DHT22;18313;48.518;9.124;2023-02-01T01:03:34;3.90;99.90
31735;DHT22;18313;48.518;9.124;2023-02-01T01:06:07;4.00;99.90
31735;DHT22;18313;48.518;9.124;2023-02-01T01:08:35;4.00;99.90
31735;DHT22;18313;48.518;9.124;2023-02-01T01:11:07;4.10;99.90
31735;DHT22;18313;48.518;9.124;2023-02-01T01:13:35;4.20;99.90
31735;DHT22;18313;48.518;9.124;2023-02-01T01:16:04;4.10;99.90
31735;DHT22;18313;48.518;9.124;2023-02-01T01:18:32;4.10;99.90
31735;DHT22;18313;48.518;9.124;2023-02-01T01:21:00;4.00;99.90
31735;DHT22;18313;48.518;9.124;2023-02-01T01:23:28;4.00;99.90
31735;DHT22;18313;48.518;9.124;2023-02-01T01:25:55;4.00;99.90
31735;DHT22;18313;48.518;9.124;2023-02-01T01:28:22;3.90;99.90
31735;DHT22;18313;48.518;9.124;2023-02-01T01:30:49;4.00;99.90
31735;DHT22;18313;48.518;9.124;2023-02-01T01:33:16;3.90;99.90
31735;DHT22;18313;48.518;9.124;2023-02-01T01:35:43;4.10;99.90
31735;DHT22;18313;48.518;9.124;2023-02-01T01:38:11;4.10;99.90
31735;DHT22;18313;48.518;9.124;2023-02-01T01:40:38;4.10;99.90
31735;DHT22;18313;48.518;9.124;2023-02-01T01:43:13;4.10;99.90
31735;DHT22;18313;48.518;9.124;2023-02-01T01:45:41;4.00;99.90
31735;DHT22;18313;48.518;9.124;2023-02-01T01:48:26;4.10;99.90
31735;DHT22;18313;48.518;9.124;2023-02-01T01:51:01;4.20;99.90
31735;DHT22;18313;48.518;9.124;2023-02-01T01:53:35;4.20;99.90
31735;DHT22;18313;48.518;9.124;2023-02-01T01:56:04;4.30;99.90
31735;DHT22;18313;48.518;9.124;2023-02-01T01:58:33;4.30;99.90
31735;DHT22;18313;48.518;9.124;2023-02-01T02:01:00;4.30;99.90
31735;DHT22;18313;48.518;9.124;2023-02-01T02:03:34;4.30;99.90
31735;DHT22;18313;48.518;9.124;2023-02-01T02:06:07;4.30;99.90
31735;DHT22;18313;48.518;9.124;2023-02-01T02:08:37;4.30;99.90
31735;DHT22;18313;48.518;9.124;2023-02-01T02:11:04;4.40;99.90
31735;DHT22;18313;48.518;9.124;2023-02-01T02:13:37;4.40;99.90
31735;DHT22;18313;48.518;9.124;2023-02-01T02:18:58;4.40;99.90
31735;DHT22;18313;48.518;9.124;2023-02-01T02:30:27;4.40;99.90
31735;DHT22;18313;48.518;9.124;2023-02-01T02:33:22;4.40;99.90
31735;DHT22;18313;48.518;9.124;2023-02-01T02:36:01;4.40;99.90
31735;DHT22;18313;48.518;9.124;2023-02-01T02:41:26;4.40;99.90
31735;DHT22;18313;48.518;9.124;2023-02-01T02:50:29;4.40;99.90
31735;DHT22;18313;48.518;9.124;2023-02-01T02:53:28;4.50;99.90
31735;DHT22;18313;48.518;9.124;2023-02-01T02:56:15;4.50;99.90
31735;DHT22;18313;48.518;9.124;2023-02-01T02:59:03;4.50;99.90
31735;DHT22;18313;48.518;9.124;2023-02-01T03:01:50;4.50;99.90
31735;DHT22;18313;48.518;9.124;2023-02-01T03:04:36;4.50;99.90
31735;DHT22;18313;48.518;9.124;2023-02-01T03:10:05;4.60;99.90
31735;DHT22;18313;48.518;9.124;2023-02-01T03:12:37;4.50;99.90
31735;DHT22;18313;48.518;9.124;2023-02-01T03:15:31;4.50;99.90
31735;DHT22;18313;48.518;9.124;2023-02-01T03:18:01;4.50;99.90
31735;DHT22;18313;48.518;9.124;2023-02-01T03:20:30;4.50;99.90
31735;DHT22;18313;48.518;9.124;2023-02-01T03:22:59;4.50;99.90
31735;DHT22;18313;48.518;9.124;2023-02-01T03:25:30;4.50;99.90
31735;DHT22;18313;48.518;9.124;2023-02-01T03:28:04;4.50;99.90
31735;DHT22;18313;48.518;9.124;2023-02-01T03:30:42;4.50;99.90
31735;DHT22;18313;48.518;9.124;2023-02-01T03:33:14;4.50;99.90
31735;DHT22;18313;48.518;9.124;2023-02-01T03:36:05;4.50;99.90
31735;DHT22;18313;48.518;9.124;2023-02-01T03:38:40;4.50;99.90
31735;DHT22;18313;48.518;9.124;2023-02-01T03:41:19;4.50;99.90
31735;DHT22;18313;48.518;9.124;2023-02-01T03:44:01;4.50;99.90
31735;DHT22;18313;48.518;9.124;2023-02-01T03:46:38;4.50;99.90
31735;DHT22;18313;48.518;9.124;2023-02-01T03:49:09;4.50;99.90
31735;DHT22;18313;48.518;9.124;2023-02-01T03:51:39;4.50;99.90
31735;DHT22;18313;48.518;9.124;2023-02-01T03:54:09;4.40;99.90
31735;DHT22;18313;48.518;9.124;2023-02-01T03:56:41;4.50;99.90
31735;DHT22;18313;48.518;9.124;2023-02-01T03:59:11;4.50;99.90
31735;DHT22;18313;48.518;9.124;2023-02-01T04:01:39;4.50;99.90
31735;DHT22;18313;48.518;9.124;2023-02-01T04:04:06;4.40;99.90
31735;DHT22;18313;48.518;9.124;2023-02-01T04:06:33;4.50;99.90
31735;DHT22;18313;48.518;9.124;2023-02-01T04:09:00;4.40;99.90
31735;DHT22;18313;48.518;9.124;2023-02-01T04:11:28;4.40;99.90
31735;DHT22;18313;48.518;9.124;2023-02-01T04:13:55;4.40;99.90
31735;DHT22;18313;48.518;9.124;2023-02-01T04:16:22;4.40;99.90
31735;DHT22;18313;48.518;9.124;2023-02-01T04:18:49;4.40;99.90
31735;DHT22;18313;48.518;9.124;2023-02-01T04:21:17;4.30;99.90
31735;DHT22;18313;48.518;9.124;2023-02-01T04:23:44;4.30;99.90
31735;DHT22;18313;48.518;9.124;2023-02-01T04:26:11;4.40;99.90
31735;DHT22;18313;48.518;9.124;2023-02-01T04:28:38;4.30;99.90
31735;DHT22;18313;48.518;9.124;2023-02-01T04:31:05;4.30;99.90
31735;DHT22;18313;48.518;9.124;2023-02-01T04:33:32;4.30;99.90
31735;DHT22;18313;48.518;9.124;2023-02-01T04:35:59;4.40;99.90
31735;DHT22;18313;48.518;9.124;2023-02-01T04:38:26;4.40;99.90
31735;DHT22;18313;48.518;9.124;2023-02-01T04:40:55;4.40;99.90
31735;DHT22;18313;48.518;9.124;2023-02-01T04:43:22;4.40;99.90
31735;DHT22;18313;48.518;9.124;2023-02-01T04:45:50;4.50;99.90
31735;DHT22;18313;48.518;9.124;2023-02-01T04:48:19;4.50;99.90
31735;DHT22;18313;48.518;9.124;2023-02-01T04:50:48;4.50;99.90
31735;DHT22;18313;48.518;9.124;2023-02-01T04:53:16;4.50;99.90
31735;DHT22;18313;48.518;9.124;2023-02-01T04:55:43;4.60;99.90
31735;DHT22;18313;48.518;9.124;2023-02-01T04:58:10;4.60;99.90
31735;DHT22;18313;48.518;9.124;2023-02-01T05:00:37;4.60;99.90
31735;DHT22;18313;48.518;9.124;2023-02-01T05:03:04;4.60;99.90
31735;DHT22;18313;48.518;9.124;2023-02-01T05:05:32;4.60;99.90
31735;DHT22;18313;48.518;9.124;2023-02-01T05:07:59;4.60;99.90
31735;DHT22;18313;48.518;9.124;2023-02-01T05:10:26;4.60;99.90
31735;DHT22;18313;48.518;9.124;2023-02-01T05:12:54;4.60;99.90
31735;DHT22;18313;48.518;9.124;2023-02-01T05:15:39;4.60;99.90
31735;DHT22;18313;48.518;9.124;2023-02-01T05:18:07;4.60;99.90
31735;DHT22;18313;48.518;9.124;2023-02-01T05:20:34;4.60;99.90
31735;DHT22;18313;48.518;9.124;2023-02-01T05:23:01;4.60;99.90
31735;DHT22;18313;48.518;9.124;2023-02-01T05:25:28;4.60;99.90
31735;DHT22;18313;48.518;9.124;2023-02-01T05:27:55;4.50;99.90
31735;DHT22;18313;48.518;9.124;2023-02-01T05:30:22;4.60;99.90
31735;DHT22;18313;48.518;9.124;2023-02-01T05:32:51;4.60;99.90
31735;DHT22;18313;48.518;9.124;2023-02-01T05:35:19;4.60;99.90
31735;DHT22;18313;48.518;9.124;2023-02-01T05:37:46;4.60;99.90
31735;DHT22;18313;48.518;9.124;2023-02-01T05:40:13;4.60;99.90
31735;DHT22;18313;48.518;9.124;2023-02-01T05:42:40;4.70;99.90
31735;DHT22;18313;48.518;9.124;2023-02-01T05:45:07;4.60;99.90
31735;DHT22;18313;48.518;9.124;2023-02-01T05:47:34;4.60;99.90
31735;DHT22;18313;48.518;9.124;2023-02-01T05:50:02;4.60;99.90
31735;DHT22;18313;48.518;9.124;2023-02-01T05:52:29;4.60;99.90
31735;DHT22;18313;48.518;9.124;2023-02-01T05:54:56;4.70;99.90
31735;DHT22;18313;48.518;9.124;2023-02-01T05:57:23;4.70;99.90
31735;DHT22;18313;48.518;9.124;2023-02-01T05:59:50;4.70;99.90
31735;DHT22;18313;48.518;9.124;2023-02-01T06:02:17;4.70;99.90
31735;DHT22;18313;48.518;9.124;2023-02-01T06:04:44;4.70;99.90
31735;DHT22;18313;48.518;9.124;2023-02-01T06:07:11;4.80;99.90
31735;DHT22;18313;48.518;9.124;2023-02-01T06:09:38;4.80;99.90
31735;DHT22;18313;48.518;9.124;2023-02-01T06:12:05;4.80;99.90
31735;DHT22;18313;48.518;9.124;2023-02-01T06:14:32;4.80;99.90
31735;DHT22;18313;48.518;9.124;2023-02-01T06:16:59;4.80;99.90
31735;DHT22;18313;48.518;9.124;2023-02-01T06:19:26;4.80;99.90
31735;DHT22;18313;48.518;9.124;2023-02-01T06:21:53;4.80;99.90
31735;DHT22;18313;48.518;9.124;2023-02-01T06:24:20;4.80;99.90
31735;DHT22;18313;48.518;9.124;2023-02-01T06:26:48;4.80;99.90
31735;DHT22;18313;48.518;9.124;2023-02-01T06:29:15;4.90;99.90
31735;DHT22;18313;48.518;9.124;2023-02-01T06:31:42;4.90;99.90
31735;DHT22;18313;48.518;9.124;2023-02-01T06:34:10;4.90;99.90
31735;DHT22;18313;48.518;9.124;2023-02-01T06:36:37;4.80;99.90
31735;DHT22;18313;48.518;9.124;2023-02-01T06:39:04;4.90;99.90
31735;DHT22;18313;48.518;9.124;2023-02-01T06:41:31;4.80;99.90
31735;DHT22;18313;48.518;9.124;2023-02-01T06:44:01;4.80;99.90
31735;DHT22;18313;48.518;9.124;2023-02-01T06:46:28;4.70;99.90
31735;DHT22;18313;48.518;9.124;2023-02-01T06:48:56;4.70;99.90
31735;DHT22;18313;48.518;9.124;2023-02-01T06:51:25;4.70;99.90
31735;DHT22;18313;48.518;9.124;2023-02-01T06:53:53;4.70;99.90
31735;DHT22;18313;48.518;9.124;2023-02-01T06:56:20;4.70;99.90
31735;DHT22;18313;48.518;9.124;2023-02-01T06:58:50;4.70;99.90
31735;DHT22;18313;48.518;9.124;2023-02-01T07:01:17;4.70;99.90
31735;DHT22;18313;48.518;9.124;2023-02-01T07:03:49;4.60;99.90
31735;DHT22;18313;48.518;9.124;2023-02-01T07:06:18;4.60;99.90
31735;DHT22;18313;48.518;9.124;2023-02-01T07:08:46;4.60;99.90
31735;DHT22;18313;48.518;9.124;2023-02-01T07:11:15;4.60;99.90
31735;DHT22;18313;48.518;9.124;2023-02-01T07:13:42;4.50;99.90
31735;DHT22;18313;48.518;9.124;2023-02-01T07:16:12;4.50;99.90
31735;DHT22;18313;48.518;9.124;2023-02-01T07:18:39;4.50;99.90
31735;DHT22;18313;48.518;9.124;2023-02-01T07:21:07;4.40;99.90
31735;DHT22;18313;48.518;9.124;2023-02-01T07:23:34;4.50;99.90
31735;DHT22;18313;48.518;9.124;2023-02-01T07:26:04;4.40;99.90
31735;DHT22;18313;48.518;9.124;2023-02-01T07:28:33;4.50;99.90
31735;DHT22;18313;48.518;9.124;2023-02-01T07:31:09;4.50;99.90
31735;DHT22;18313;48.518;9.124;2023-02-01T07:33:36;4.50;99.90
31735;DHT22;18313;48.518;9.124;2023-02-01T07:36:05;4.50;99.90
31735;DHT22;18313;48.518;9.124;2023-02-01T07:38:34;4.60;99.90
31735;DHT22;18313;48.518;9.124;2023-02-01T07:41:02;4.50;99.90
31735;DHT22;18313;48.518;9.124;2023-02-01T07:43:30;4.50;99.90
31735;DHT22;18313;48.518;9.124;2023-02-01T07:45:57;4.50;99.90
31735;DHT22;18313;48.518;9.124;2023-02-01T07:48:25;4.50;99.90
31735;DHT22;18313;48.518;9.124;2023-02-01T07:51:00;4.50;99.90
31735;DHT22;18313;48.518;9.124;2023-02-01T07:53:29;4.60;99.90
31735;DHT22;18313;48.518;9.124;2023-02-01T07:55:56;4.60;99.90
31735;DHT22;18313;48.518;9.124;2023-02-01T07:58:24;4.60;99.90
31735;DHT22;18313;48.518;9.124;2023-02-01T08:00:52;4.60;99.90
31735;DHT22;18313;48.518;9.124;2023-02-01T08:03:38;4.60;99.90
31735;DHT22;18313;48.518;9.124;2023-02-01T08:06:05;4.70;99.90
31735;DHT22;18313;48.518;9.124;2023-02-01T08:08:33;4.70;99.90
31735;DHT22;18313;48.518;9.124;2023-02-01T08:11:03;4.70;99.90
31735;DHT22;18313;48.518;9.124;2023-02-01T08:13:30;4.70;99.90
31735;DHT22;18313;48.518;9.124;2023-02-01T08:16:01;4.70;99.90
31735;DHT22;18313;48.518;9.124;2023-02-01T08:18:29;4.70;99.90
31735;DHT22;18313;48.518;9.124;2023-02-01T08:20:56;4.80;99.90
31735;DHT22;18313;48.518;9.124;2023-02-01T08:23:23;4.80;99.90
31735;DHT22;18313;48.518;9.124;2023-02-01T08:25:50;4.80;99.90
31735;DHT22;18313;48.518;9.124;2023-02-01T08:28:17;4.80;99.90
31735;DHT22;18313;48.518;9.124;2023-02-01T08:30:44;4.90;99.90
31735;DHT22;18313;48.518;9.124;2023-02-01T08:33:11;4.90;99.90
31735;DHT22;18313;48.518;9.124;2023-02-01T08:35:39;4.90;99.90
31735;DHT22;18313;48.518;9.124;2023-02-01T08:38:10;4.90;99.90
31735;DHT22;18313;48.518;9.124;2023-02-01T08:40:37;4.90;99.90
31735;DHT22;18313;48.518;9.124;2023-02-01T08:43:04;5.00;99.90
31735;DHT22;18313;48.518;9.124;2023-02-01T08:45:31;5.00;99.90
31735;DHT22;18313;48.518;9.124;2023-02-01T08:47:59;5.00;99.90
31735;DHT22;18313;48.518;9.124;2023-02-01T08:50:26;5.00;99.90
31735;DHT22;18313;48.518;9.124;2023-02-01T08:52:54;5.00;99.90
31735;DHT22;18313;48.518;9.124;2023-02-01T08:55:21;5.00;99.90
31735;DHT22;18313;48.518;9.124;2023-02-01T08:57:48;5.10;99.90
31735;DHT22;18313;48.518;9.124;2023-02-01T09:00:17;5.20;99.90
31735;DHT22;18313;48.518;9.124;2023-02-01T09:02:44;5.20;99.90
31735;DHT22;18313;48.518;9.124;2023-02-01T09:05:11;5.30;99.90
31735;DHT22;18313;48.518;9.124;2023-02-01T09:07:38;5.30;99.90
31735;DHT22;18313;48.518;9.124;2023-02-01T09:10:06;5.30;99.90
31735;DHT22;18313;48.518;9.124;2023-02-01T09:12:34;5.30;99.90
31735;DHT22;18313;48.518;9.124;2023-02-01T09:15:01;5.20;99.90
31735;DHT22;18313;48.518;9.124;2023-02-01T09:17:30;5.10;99.90
31735;DHT22;18313;48.518;9.124;2023-02-01T09:19:57;5.10;99.90
31735;DHT22;18313;48.518;9.124;2023-02-01T09:22:24;5.10;99.90
31735;DHT22;18313;48.518;9.124;2023-02-01T09:24:52;5.10;99.90
31735;DHT22;18313;48.518;9.124;2023-02-01T09:27:21;5.10;99.90
31735;DHT22;18313;48.518;9.124;2023-02-01T09:29:48;5.00;99.90
31735;DHT22;18313;48.518;9.124;2023-02-01T09:32:20;5.00;99.90
31735;DHT22;18313;48.518;9.124;2023-02-01T09:34:49;5.00;99.90
31735;DHT22;18313;48.518;9.124;2023-02-01T09:37:16;5.00;99.90
31735;DHT22;18313;48.518;9.124;2023-02-01T09:39:44;5.00;99.90
31735;DHT22;18313;48.518;9.124;2023-02-01T09:45:24;5.00;99.90
31735;DHT22;18313;48.518;9.124;2023-02-01T09:48:02;5.00;99.90
31735;DHT22;18313;48.518;9.124;2023-02-01T09:50:34;5.00;99.90
31735;DHT22;18313;48.518;9.124;2023-02-01T09:53:12;5.00;99.90
31735;DHT22;18313;48.518;9.124;2023-02-01T09:55:50;5.00;99.90
31735;DHT22;18313;48.518;9.124;2023-02-01T09:58:35;5.00;99.90
31735;DHT22;18313;48.518;9.124;2023-02-01T10:01:10;5.10;99.90
31735;DHT22;18313;48.518;9.124;2023-02-01T10:03:41;5.20;99.90
31735;DHT22;18313;48.518;9.124;2023-02-01T10:06:40;5.20;99.90
31735;DHT22;18313;48.518;9.124;2023-02-01T10:14:48;5.30;99.90
31735;DHT22;18313;48.518;9.124;2023-02-01T10:17:31;5.30;99.90
31735;DHT22;18313;48.518;9.124;2023-02-01T10:20:14;5.30;99.90
31735;DHT22;18313;48.518;9.124;2023-02-01T10:23:07;5.30;99.90
31735;DHT22;18313;48.518;9.124;2023-02-01T10:26:10;5.50;99.90
31735;DHT22;18313;48.518;9.124;2023-02-01T10:28:41;5.50;99.90
31735;DHT22;18313;48.518;9.124;2023-02-01T10:31:09;5.50;99.90
31735;DHT22;18313;48.518;9.124;2023-02-01T10:33:42;5.50;99.90
31735;DHT22;18313;48.518;9.124;2023-02-01T10:36:16;5.50;99.90
31735;DHT22;18313;48.518;9.124;2023-02-01T10:38:46;5.60;99.90
31735;DHT22;18313;48.518;9.124;2023-02-01T10:41:15;5.60;99.90
31735;DHT22;18313;48.518;9.124;2023-02-01T10:43:44;5.80;99.90
31735;DHT22;18313;48.518;9.124;2023-02-01T10:46:12;5.80;99.90
31735;DHT22;18313;48.518;9.124;2023-02-01T10:48:40;5.80;99.90
31735;DHT22;18313;48.518;9.124;2023-02-01T10:51:23;5.90;99.90
31735;DHT22;18313;48.518;9.124;2023-02-01T10:53:58;5.90;99.90
31735;DHT22;18313;48.518;9.124;2023-02-01T10:56:28;5.90;99.90
31735;DHT22;18313;48.518;9.124;2023-02-01T10:59:05;5.80;99.90
31735;DHT22;18313;48.518;9.124;2023-02-01T11:01:38;5.80;99.90
31735;DHT22;18313;48.518;9.124;2023-02-01T11:04:16;5.80;99.90
31735;DHT22;18313;48.518;9.124;2023-02-01T11:06:51;5.80;99.90
31735;DHT22;18313;48.518;9.124;2023-02-01T11:09:21;5.80;99.90
31735;DHT22;18313;48.518;9.124;2023-02-01T11:14:26;5.80;99.90
31735;DHT22;18313;48.518;9.124;2023-02-01T11:19:45;5.80;99.90
31735;DHT22;18313;48.518;9.124;2023-02-01T11:22:13;5.80;99.90
31735;DHT22;18313;48.518;9.124;2023-02-01T11:24:44;5.80;99.90
31735;DHT22;18313;48.518;9.124;2023-02-01T11:27:16;5.80;99.90
31735;DHT22;18313;48.518;9.124;2023-02-01T11:29:57;5.80;99.90
31735;DHT22;18313;48.518;9.124;2023-02-01T11:32:26;5.80;99.90
31735;DHT22;18313;48.518;9.124;2023-02-01T11:35:18;5.70;99.90
31735;DHT22;18313;48.518;9.124;2023-02-01T11:37:54;5.70;99.90
31735;DHT22;18313;48.518;9.124;2023-02-01T11:45:29;5.70;99.90
31735;DHT22;18313;48.518;9.124;2023-02-01T11:47:57;5.70;99.90
31735;DHT22;18313;48.518;9.124;2023-02-01T11:50:27;5.70;99.90
31735;DHT22;18313;48.518;9.124;2023-02-01T11:55:37;5.70;99.90
31735;DHT22;18313;48.518;9.124;2023-02-01T12:06:53;5.80;99.90
31735;DHT22;18313;48.518;9.124;2023-02-01T12:09:45;5.80;99.90
31735;DHT22;18313;48.518;9.124;2023-02-01T12:12:22;5.80;99.90
31735;DHT22;18313;48.518;9.124;2023-02-01T12:15:20;5.80;99.90
31735;DHT22;18313;48.518;9.124;2023-02-01T12:18:04;5.90;99.90
31735;DHT22;18313;48.518;9.124;2023-02-01T12:20:50;5.90;99.90
31735;DHT22;18313;48.518;9.124;2023-02-01T12:26:38;5.90;99.90
31735;DHT22;18313;48.518;9.124;2023-02-01T12:43:59;5.90;99.90
31735;DHT22;18313;48.518;9.124;2023-02-01T12:46:31;5.90;99.90
31735;DHT22;18313;48.518;9.124;2023-02-01T12:49:36;5.90;99.90
31735;DHT22;18313;48.518;9.124;2023-02-01T12:52:21;5.80;99.90
31735;DHT22;18313;48.518;9.124;2023-02-01T12:55:01;5.80;99.90
31735;DHT22;18313;48.518;9.124;2023-02-01T12:57:36;5.90;99.90
31735;DHT22;18313;48.518;9.124;2023-02-01T13:00:31;5.90;99.90
31735;DHT22;18313;48.518;9.124;2023-02-01T13:03:16;5.90;99.90
31735;DHT22;18313;48.518;9.124;2023-02-01T13:06:15;5.90;99.90
31735;DHT22;18313;48.518;9.124;2023-02-01T13:08:53;5.80;99.90
31735;DHT22;18313;48.518;9.124;2023-02-01T13:17:18;5.80;99.90
31735;DHT22;18313;48.518;9.124;2023-02-01T13:22:40;5.80;99.90
31735;DHT22;18313;48.518;9.124;2023-02-01T13:27:37;5.80;99.90
31735;DHT22;18313;48.518;9.124;2023-02-01T13:30:15;5.80;99.90
31735;DHT22;18313;48.518;9.124;2023-02-01T13:38:56;5.70;99.90
31735;DHT22;18313;48.518;9.124;2023-02-01T13:41:29;5.80;99.90
31735;DHT22;18313;48.518;9.124;2023-02-01T13:44:11;5.80;99.90
31735;DHT22;18313;48.518;9.124;2023-02-01T13:46:43;5.70;99.90
31735;DHT22;18313;48.518;9.124;2023-02-01T13:49:32;5.70;99.90
31735;DHT22;18313;48.518;9.124;2023-02-01T13:52:03;5.80;99.90
31735;DHT22;18313;48.518;9.124;2023-02-01T13:54:39;5.80;99.90
31735;DHT22;18313;48.518;9.124;2023-02-01T14:00:36;5.80;99.90
31735;DHT22;18313;48.518;9.124;2023-02-01T14:03:22;5.80;99.90
31735;DHT22;18313;48.518;9.124;2023-02-01T14:06:01;5.80;99.90
31735;DHT22;18313;48.518;9.124;2023-02-01T14:08:42;5.80;99.90
31735;DHT22;18313;48.518;9.124;2023-02-01T14:11:33;5.80;99.90
31735;DHT22;18313;48.518;9.124;2023-02-01T14:19:30;5.80;99.90
31735;DHT22;18313;48.518;9.124;2023-02-01T14:24:53;5.70;99.90
31735;DHT22;18313;48.518;9.124;2023-02-01T14:27:24;5.70;99.90
31735;DHT22;18313;48.518;9.124;2023-02-01T14:29:55;5.70;99.90
31735;DHT22;18313;48.518;9.124;2023-02-01T14:32:36;5.70;99.90
31735;DHT22;18313;48.518;9.124;2023-02-01T14:35:37;5.70;99.90
31735;DHT22;18313;48.518;9.124;2023-02-01T14:38:08;5.80;99.90
31735;DHT22;18313;48.518;9.124;2023-02-01T14:40:36;5.80;99.90
31735;DHT22;18313;48.518;9.124;2023-02-01T14:43:03;5.80;99.90
31735;DHT22;18313;48.518;9.124;2023-02-01T14:50:43;5.80;99.90
31735;DHT22;18313;48.518;9.124;2023-02-01T14:58:55;5.70;99.90
31735;DHT22;18313;48.518;9.124;2023-02-01T15:01:29;5.70;99.90
31735;DHT22;18313;48.518;9.124;2023-02-01T15:04:17;5.70;99.90
31735;DHT22;18313;48.518;9.124;2023-02-01T15:07:05;5.70;99.90
31735;DHT22;18313;48.518;9.124;2023-02-01T15:09:44;5.70;99.90
31735;DHT22;18313;48.518;9.124;2023-02-01T15:14:41;5.70;99.90
31735;DHT22;18313;48.518;9.124;2023-02-01T15:17:24;5.70;99.90
31735;DHT22;18313;48.518;9.124;2023-02-01T15:19:56;5.70;99.90
31735;DHT22;18313;48.518;9.124;2023-02-01T15:22:24;5.70;99.90
31735;DHT22;18313;48.518;9.124;2023-02-01T15:24:56;5.70;99.90
31735;DHT22;18313;48.518;9.124;2023-02-01T15:27:26;5.70;99.90
31735;DHT22;18313;48.518;9.124;2023-02-01T15:29:53;5.70;99.90
31735;DHT22;18313;48.518;9.124;2023-02-01T15:32:32;5.60;99.90
31735;DHT22;18313;48.518;9.124;2023-02-01T15:35:00;5.70;99.90
31735;DHT22;18313;48.518;9.124;2023-02-01T15:37:28;5.70;99.90
31735;DHT22;18313;48.518;9.124;2023-02-01T15:40:23;5.70;99.90
31735;DHT22;18313;48.518;9.124;2023-02-01T15:42:53;5.70;99.90
31735;DHT22;18313;48.518;9.124;2023-02-01T15:45:25;5.70;99.90
31735;DHT22;18313;48.518;9.124;2023-02-01T15:47:55;5.70;99.90
31735;DHT22;18313;48.518;9.124;2023-02-01T15:50:22;5.70;99.90
31735;DHT22;18313;48.518;9.124;2023-02-01T15:52:53;5.70;99.90
31735;DHT22;18313;48.518;9.124;2023-02-01T15:55:41;5.70;99.90
31735;DHT22;18313;48.518;9.124;2023-02-01T15:58:21;5.70;99.90
31735;DHT22;18313;48.518;9.124;2023-02-01T16:00:55;5.60;99.90
31735;DHT22;18313;48.518;9.124;2023-02-01T16:03:24;5.60;99.90
31735;DHT22;18313;48.518;9.124;2023-02-01T16:05:57;5.60;99.90
31735;DHT22;18313;48.518;9.124;2023-02-01T16:08:27;5.60;99.90
31735;DHT22;18313;48.518;9.124;2023-02-01T16:11:01;5.60;99.90
31735;DHT22;18313;48.518;9.124;2023-02-01T16:13:41;5.60;99.90
31735;DHT22;18313;48.518;9.124;2023-02-01T16:16:09;5.70;99.90
31735;DHT22;18313;48.518;9.124;2023-02-01T16:18:41;5.70;99.90
31735;DHT22;18313;48.518;9.124;2023-02-01T16:21:08;5.60;99.90
31735;DHT22;18313;48.518;9.124;2023-02-01T16:23:36;5.60;99.90
31735;DHT22;18313;48.518;9.124;2023-02-01T16:26:04;5.60;99.90
31735;DHT22;18313;48.518;9.124;2023-02-01T16:28:32;5.50;99.90
31735;DHT22;18313;48.518;9.124;2023-02-01T16:31:00;5.60;99.90
31735;DHT22;18313;48.518;9.124;2023-02-01T16:33:27;5.50;99.90
31735;DHT22;18313;48.518;9.124;2023-02-01T16:35:56;5.50;99.90
31735;DHT22;18313;48.518;9.124;2023-02-01T16:38:26;5.50;99.90
31735;DHT22;18313;48.518;9.124;2023-02-01T16:40:53;5.50;99.90
31735;DHT22;18313;48.518;9.124;2023-02-01T16:43:22;5.50;99.90
31735;DHT22;18313;48.518;9.124;2023-02-01T16:45:52;5.50;99.90
31735;DHT22;18313;48.518;9.124;2023-02-01T16:48:31;5.50;99.90
31735;DHT22;18313;48.518;9.124;2023-02-01T16:51:11;5.40;99.90
31735;DHT22;18313;48.518;9.124;2023-02-01T16:53:39;5.40;99.90
31735;DHT22;18313;48.518;9.124;2023-02-01T16:56:31;5.40;99.90
31735;DHT22;18313;48.518;9.124;2023-02-01T16:58:58;5.40;99.90
31735;DHT22;18313;48.518;9.124;2023-02-01T17:01:26;5.40;99.90
31735;DHT22;18313;48.518;9.124;2023-02-01T17:03:53;5.40;99.90
31735;DHT22;18313;48.518;9.124;2023-02-01T17:06:22;5.40;99.90
31735;DHT22;18313;48.518;9.124;2023-02-01T17:08:55;5.40;99.90
31735;DHT22;18313;48.518;9.124;2023-02-01T17:11:22;5.40;99.90
31735;DHT22;18313;48.518;9.124;2023-02-01T17:13:49;5.40;99.90
31735;DHT22;18313;48.518;9.124;2023-02-01T17:19:02;5.30;99.90
31735;DHT22;18313;48.518;9.124;2023-02-01T17:21:38;5.40;99.90
31735;DHT22;18313;48.518;9.124;2023-02-01T17:24:06;5.40;99.90
31735;DHT22;18313;48.518;9.124;2023-02-01T17:26:34;5.40;99.90
31735;DHT22;18313;48.518;9.124;2023-02-01T17:29:04;5.30;99.90
31735;DHT22;18313;48.518;9.124;2023-02-01T17:31:35;5.30;99.90
31735;DHT22;18313;48.518;9.124;2023-02-01T17:34:03;5.30;99.90
31735;DHT22;18313;48.518;9.124;2023-02-01T17:36:30;5.40;99.90
31735;DHT22;18313;48.518;9.124;2023-02-01T17:38:57;5.40;99.90
31735;DHT22;18313;48.518;9.124;2023-02-01T17:41:32;5.30;99.90
31735;DHT22;18313;48.518;9.124;2023-02-01T17:43:59;5.30;99.90
31735;DHT22;18313;48.518;9.124;2023-02-01T17:46:26;5.30;99.90
31735;DHT22;18313;48.518;9.124;2023-02-01T17:48:54;5.30;99.90
31735;DHT22;18313;48.518;9.124;2023-02-01T17:51:26;5.20;99.90
31735;DHT22;18313;48.518;9.124;2023-02-01T17:53:54;5.20;99.90
31735;DHT22;18313;48.518;9.124;2023-02-01T17:56:24;5.20;99.90
31735;DHT22;18313;48.518;9.124;2023-02-01T17:58:51;5.20;99.90
31735;DHT22;18313;48.518;9.124;2023-02-01T18:01:23;5.20;99.90
31735;DHT22;18313;48.518;9.124;2023-02-01T18:03:50;5.20;99.90
31735;DHT22;18313;48.518;9.124;2023-02-01T18:06:23;5.20;99.90
31735;DHT22;18313;48.518;9.124;2023-02-01T18:08:52;5.20;99.90
31735;DHT22;18313;48.518;9.124;2023-02-01T18:11:21;5.20;99.90